Legenda:
Basso (0-210)
Molto Alto (490 - 630)

Moderato (210 - 350)
Estremo (630 - 800)

Alto (350 - 490)
Molto estremo (800+)


 
767.10
Date Temp. (°C) Wind Speed (km/h) Rain (mm) RH Days Since Rain pwsFWI
La previsione è attiva (incluso oggi!), I valori sono sopra la linea rossa.
16/08/20 30.00 16.00 0.00 0.71 14 328.12
15/08/20 29.00 14.00 0.00 0.66 13 358.35
14/08/20 29.00 12.00 0.00 0.67 12 439.61
13/08/20 29.00 23.00 0.00 0.61 11 621.41
12/08/20 30.00 20.00 0.00 0.58 10 703.83
11/08/20 29.90 14.80 0.00 0.50 9 767.10
10/08/20 30.40 14.80 0.00 0.45 8 861.80
09/08/20 31.90 20.90 0.00 0.39 7 1021.56
08/08/20 33.10 31.70 0.00 0.33 6 1075.28
07/08/20 30.60 29.50 0.00 0.40 5 945.94
06/08/20 28.80 30.60 0.00 0.44 4 864.30
05/08/20 29.10 31.70 0.00 0.38 3 833.74
04/08/20 30.10 36.70 0.00 0.26 2 757.89
03/08/20 34.90 23.40 0.00 0.33 1 581.47
02/08/20 30.10 15.80 0.30 0.36 0 470.99
01/08/20 32.00 13.30 0.00 0.41 51 481.08
31/07/20 31.60 18.40 0.00 0.38 50 489.44
30/07/20 31.30 19.40 0.00 0.53 49 496.91
29/07/20 29.90 15.80 0.00 0.58 48 498.18
28/07/20 29.90 17.30 0.00 0.55 47 562.37
27/07/20 28.90 15.80 0.00 0.64 46 559.81
26/07/20 28.70 18.40 0.00 0.42 45 572.73
25/07/20 29.00 22.00 0.00 0.35 44 528.17
24/07/20 30.80 15.80 0.00 0.39 43 461.15
24/07/20 31.70 17.30 0.00 0.25 42 442.14
23/07/20 29.10 17.30 0.00 0.54 41 387.37
22/07/20 28.90 17.30 0.00 0.57 40 390.83
21/07/20 27.90 15.80 0.00 0.66 39 466.66
20/07/20 27.10 17.30 0.00 0.61 38 482.12
19/07/20 27.30 19.40 0.00 0.52 37 550.84
CumulusUtils Version 2.1.7 © Hans Rottier
Science background here. - NOTE: Behavioural testing still under way!
Prediction courtesy of https://www.yourweather.co.uk/